createdAt,value
2022-09-21T00:00:45.933Z,66.20
2022-09-21T00:03:14.247Z,66.40
2022-09-21T00:05:41.062Z,67.10
2022-09-21T00:08:08.270Z,66.50
2022-09-21T00:10:35.118Z,66.50
2022-09-21T00:13:03.027Z,66.20
2022-09-21T00:15:30.378Z,66.40
2022-09-21T00:17:57.921Z,66.30
2022-09-21T00:20:25.115Z,66.50
2022-09-21T00:22:51.900Z,66.30
2022-09-21T00:25:19.034Z,66.40
2022-09-21T00:27:48.725Z,66.40
2022-09-21T00:30:15.457Z,66.40
2022-09-21T00:32:42.070Z,66.40
2022-09-21T00:35:09.652Z,66.10
2022-09-21T00:37:36.598Z,65.90
2022-09-21T00:40:03.748Z,66.00
2022-09-21T00:42:32.166Z,66.10
2022-09-21T00:44:58.794Z,66.10
2022-09-21T00:47:28.522Z,65.60
2022-09-21T00:49:56.769Z,65.60
2022-09-21T00:52:24.487Z,66.00
2022-09-21T00:54:53.045Z,65.60
2022-09-21T00:57:23.703Z,65.70
2022-09-21T00:59:51.234Z,65.20
2022-09-21T01:02:18.200Z,65.50
2022-09-21T01:04:45.619Z,65.20
2022-09-21T01:07:18.420Z,65.00
2022-09-21T01:09:47.629Z,64.70
2022-09-21T01:12:29.359Z,65.70
2022-09-21T01:14:56.013Z,65.00
2022-09-21T01:17:25.865Z,65.60
2022-09-21T01:20:04.465Z,64.90
2022-09-21T01:22:49.897Z,64.90
2022-09-21T01:25:25.637Z,65.00
2022-09-21T01:27:58.351Z,65.40
2022-09-21T01:30:25.453Z,64.90
2022-09-21T01:33:10.979Z,65.20
2022-09-21T01:35:46.740Z,65.00
2022-09-21T01:38:35.485Z,64.90
2022-09-21T01:41:03.879Z,64.90
2022-09-21T01:43:33.933Z,64.70
2022-09-21T01:46:04.201Z,64.60
2022-09-21T01:48:35.199Z,65.10
2022-09-21T01:51:03.446Z,64.70
2022-09-21T01:53:38.850Z,64.70
2022-09-21T01:56:27.050Z,64.70
2022-09-21T01:59:12.539Z,64.90
2022-09-21T02:01:43.651Z,64.60
2022-09-21T02:04:11.786Z,64.80
2022-09-21T02:06:43.647Z,64.60
2022-09-21T02:09:10.863Z,64.90
2022-09-21T02:11:43.126Z,64.70
2022-09-21T02:14:11.600Z,64.50
2022-09-21T02:16:40.215Z,64.60
2022-09-21T02:19:22.306Z,64.60
2022-09-21T02:21:52.001Z,65.10
2022-09-21T02:24:37.414Z,65.00
2022-09-21T02:27:10.258Z,64.50
2022-09-21T02:29:47.837Z,64.80
2022-09-21T02:32:20.585Z,64.50
2022-09-21T02:34:50.324Z,64.50
2022-09-21T02:37:23.910Z,64.90
2022-09-21T02:39:50.503Z,64.80
2022-09-21T02:42:20.492Z,64.90
2022-09-21T02:44:50.657Z,65.20
2022-09-21T02:47:23.673Z,65.30
2022-09-21T02:49:53.381Z,65.60
2022-09-21T02:52:20.752Z,64.90
2022-09-21T02:54:49.954Z,64.80
2022-09-21T02:57:18.132Z,65.00
2022-09-21T02:59:44.736Z,64.70
2022-09-21T03:02:12.553Z,64.70
2022-09-21T03:04:41.299Z,64.90
2022-09-21T03:07:08.317Z,64.90
2022-09-21T03:09:35.324Z,65.00
2022-09-21T03:12:02.063Z,64.40
2022-09-21T03:14:28.688Z,64.70
2022-09-21T03:16:55.315Z,64.70
2022-09-21T03:19:21.921Z,64.80
2022-09-21T03:21:48.550Z,64.70
2022-09-21T03:24:35.143Z,64.40
2022-09-21T03:27:01.863Z,65.20
2022-09-21T03:29:28.526Z,64.80
2022-09-21T03:31:56.050Z,64.60
2022-09-21T03:34:22.974Z,64.60
2022-09-21T03:36:49.594Z,64.40
2022-09-21T03:39:16.237Z,64.60
2022-09-21T03:41:42.921Z,64.70
2022-09-21T03:44:09.533Z,64.70
2022-09-21T03:46:36.222Z,64.80
2022-09-21T03:49:03.048Z,64.60
2022-09-21T03:51:31.543Z,64.30
2022-09-21T03:53:58.202Z,65.20
2022-09-21T03:56:24.913Z,64.50
2022-09-21T03:58:51.542Z,64.70
2022-09-21T04:01:18.207Z,65.30
2022-09-21T04:03:44.833Z,65.10
2022-09-21T04:06:12.159Z,65.20
2022-09-21T04:08:39.300Z,65.10
2022-09-21T04:11:09.854Z,65.50
2022-09-21T04:13:36.617Z,65.20
2022-09-21T04:16:03.456Z,64.90
2022-09-21T04:18:30.097Z,65.50
2022-09-21T04:20:56.799Z,65.80
2022-09-21T04:23:23.714Z,65.80
2022-09-21T04:25:53.125Z,65.70
2022-09-21T04:28:19.776Z,65.50
2022-09-21T04:30:46.513Z,65.20
2022-09-21T04:33:14.222Z,65.20
2022-09-21T04:35:41.122Z,65.10
2022-09-21T04:38:07.808Z,65.10
2022-09-21T04:40:34.443Z,65.10
2022-09-21T04:43:01.090Z,65.10
2022-09-21T04:45:27.857Z,65.10
2022-09-21T04:47:54.461Z,65.20
2022-09-21T04:50:21.301Z,65.20
2022-09-21T04:52:48.011Z,65.30
2022-09-21T04:55:14.641Z,65.20
2022-09-21T04:57:41.417Z,65.20
2022-09-21T05:00:08.456Z,65.20
2022-09-21T05:02:35.190Z,65.10
2022-09-21T05:05:02.061Z,65.60
2022-09-21T05:07:28.686Z,65.10
2022-09-21T05:10:04.454Z,65.10
2022-09-21T05:12:31.481Z,65.10
2022-09-21T05:14:58.109Z,65.00
2022-09-21T05:17:24.886Z,65.00
2022-09-21T05:19:52.077Z,65.00
2022-09-21T05:22:19.086Z,65.00
2022-09-21T05:24:45.883Z,65.10
2022-09-21T05:27:13.153Z,65.20
2022-09-21T05:29:40.606Z,65.20
2022-09-21T05:32:10.059Z,65.10
2022-09-21T05:34:40.838Z,65.10
2022-09-21T05:37:07.440Z,65.10
2022-09-21T05:39:34.242Z,65.20
2022-09-21T05:42:01.091Z,65.20
2022-09-21T05:44:27.886Z,65.10
2022-09-21T05:46:59.165Z,65.00
2022-09-21T05:49:42.906Z,65.00
2022-09-21T05:52:15.471Z,65.20
2022-09-21T05:54:42.104Z,65.20
2022-09-21T05:57:27.351Z,65.60
2022-09-21T06:00:15.604Z,65.20
2022-09-21T06:02:42.215Z,65.00
2022-09-21T06:05:12.526Z,65.10
2022-09-21T06:07:39.176Z,65.20
2022-09-21T06:10:06.279Z,65.20
2022-09-21T06:12:32.931Z,65.10
2022-09-21T06:14:59.564Z,65.00
2022-09-21T06:17:27.425Z,64.70
2022-09-21T06:19:54.252Z,65.10
2022-09-21T06:22:21.402Z,65.40
2022-09-21T06:24:48.031Z,65.30
2022-09-21T06:27:14.672Z,65.40
2022-09-21T06:29:41.308Z,65.20
2022-09-21T06:32:07.964Z,65.20
2022-09-21T06:34:34.616Z,65.20
2022-09-21T06:37:01.312Z,65.30
2022-09-21T06:39:28.074Z,65.20
2022-09-21T06:41:55.338Z,65.10
2022-09-21T06:44:21.963Z,65.20
2022-09-21T06:46:48.670Z,65.30
2022-09-21T06:49:15.366Z,65.20
2022-09-21T06:51:43.144Z,65.20
2022-09-21T06:54:09.897Z,64.80
2022-09-21T06:56:36.631Z,65.40
2022-09-21T06:59:03.316Z,65.40
2022-09-21T07:01:30.068Z,65.40
2022-09-21T07:03:56.856Z,65.40
2022-09-21T07:06:23.966Z,65.20
2022-09-21T07:11:41.506Z,65.50
2022-09-21T07:14:08.169Z,65.50
2022-09-21T07:16:35.025Z,65.40
2022-09-21T07:19:11.131Z,65.40
2022-09-21T07:21:38.133Z,64.80
2022-09-21T07:24:09.500Z,65.80
2022-09-21T07:26:39.144Z,65.60
2022-09-21T07:29:05.882Z,65.50
2022-09-21T07:31:32.626Z,65.50
2022-09-21T07:33:59.479Z,65.40
2022-09-21T07:36:26.281Z,65.70
2022-09-21T07:38:53.979Z,65.70
2022-09-21T07:41:21.090Z,65.60
2022-09-21T07:43:47.751Z,65.60
2022-09-21T07:46:15.186Z,65.40
2022-09-21T07:48:42.151Z,65.70
2022-09-21T07:51:11.112Z,65.70
2022-09-21T07:53:38.697Z,65.70
2022-09-21T07:56:06.739Z,65.70
2022-09-21T07:58:52.067Z,65.60
2022-09-21T08:01:19.025Z,65.80
2022-09-21T08:03:48.594Z,65.80
2022-09-21T08:06:15.279Z,65.90
2022-09-21T08:08:41.902Z,65.70
2022-09-21T08:11:08.529Z,65.80
2022-09-21T08:13:35.157Z,65.90
2022-09-21T08:16:02.485Z,65.70
2022-09-21T08:18:29.416Z,65.80
2022-09-21T08:20:56.994Z,65.90
2022-09-21T08:23:24.010Z,65.90
2022-09-21T08:25:50.612Z,66.00
2022-09-21T08:28:18.507Z,66.00
2022-09-21T08:30:45.115Z,65.90
2022-09-21T08:33:11.837Z,66.00
2022-09-21T08:35:38.529Z,66.00
2022-09-21T08:38:05.217Z,66.10
2022-09-21T08:40:32.685Z,66.10
2022-09-21T08:43:01.835Z,66.10
2022-09-21T08:45:37.966Z,66.40
2022-09-21T08:48:10.425Z,66.40
2022-09-21T08:50:48.489Z,66.50
2022-09-21T08:53:15.596Z,66.40
2022-09-21T08:55:42.270Z,66.40
2022-09-21T08:58:25.100Z,66.30
2022-09-21T09:01:12.073Z,66.40
2022-09-21T09:03:40.919Z,66.40
2022-09-21T09:06:14.103Z,66.40
2022-09-21T09:08:46.962Z,66.40
2022-09-21T09:11:21.039Z,66.40
2022-09-21T09:13:50.439Z,66.40
2022-09-21T09:16:17.125Z,66.50
2022-09-21T09:18:54.946Z,66.50
2022-09-21T09:21:55.333Z,66.50
2022-09-21T09:24:31.623Z,66.50
2022-09-21T09:27:33.659Z,66.50
2022-09-21T09:30:03.961Z,66.70
2022-09-21T09:32:51.170Z,66.90
2022-09-21T09:35:39.225Z,67.10
2022-09-21T09:38:12.138Z,67.00
2022-09-21T09:40:42.005Z,67.00
2022-09-21T09:43:28.911Z,66.90
2022-09-21T09:46:01.582Z,66.90
2022-09-21T09:48:28.215Z,67.00
2022-09-21T09:50:54.850Z,67.00
2022-09-21T09:53:23.398Z,67.10
2022-09-21T09:55:54.452Z,67.20
2022-09-21T09:58:24.260Z,67.10
2022-09-21T10:00:52.516Z,67.10
2022-09-21T10:03:21.606Z,67.10
2022-09-21T10:05:48.642Z,68.20
2022-09-21T10:08:44.635Z,67.20
2022-09-21T10:11:12.188Z,67.20
2022-09-21T10:13:40.606Z,67.30
2022-09-21T10:16:07.338Z,67.20
2022-09-21T10:18:52.429Z,67.20
2022-09-21T10:21:19.927Z,67.20
2022-09-21T10:23:51.151Z,67.30
2022-09-21T10:26:18.537Z,67.40
2022-09-21T10:29:17.830Z,67.30
2022-09-21T10:32:11.178Z,67.30
2022-09-21T10:34:42.042Z,67.30
2022-09-21T10:37:26.337Z,67.30
2022-09-21T10:39:52.999Z,67.30
2022-09-21T10:42:19.945Z,67.20
2022-09-21T10:44:47.818Z,67.30
2022-09-21T10:47:17.473Z,67.30
2022-09-21T10:49:50.440Z,67.40
2022-09-21T10:52:19.475Z,67.40
2022-09-21T10:54:48.455Z,67.40
2022-09-21T10:57:16.648Z,67.40
2022-09-21T10:59:44.603Z,67.40
2022-09-21T11:02:25.407Z,67.40
2022-09-21T11:04:56.963Z,67.50
2022-09-21T11:07:27.385Z,67.50
2022-09-21T11:10:16.449Z,67.50
2022-09-21T11:12:55.572Z,67.50
2022-09-21T11:15:30.205Z,67.40
2022-09-21T11:18:13.093Z,67.40
2022-09-21T11:20:43.492Z,67.40
2022-09-21T11:23:36.812Z,67.40
2022-09-21T11:26:19.862Z,67.60
2022-09-21T11:28:49.761Z,67.50
2022-09-21T11:31:22.331Z,67.50
2022-09-21T11:34:00.656Z,67.50
2022-09-21T11:36:27.267Z,67.70
2022-09-21T11:38:57.472Z,67.80
2022-09-21T11:41:42.199Z,67.90
2022-09-21T11:44:19.200Z,67.70
2022-09-21T11:46:51.758Z,67.60
2022-09-21T11:49:33.919Z,67.50
2022-09-21T11:52:22.176Z,67.60
2022-09-21T11:55:00.681Z,67.50
2022-09-21T11:57:31.150Z,67.50
2022-09-21T12:00:17.231Z,67.40
2022-09-21T12:03:02.714Z,67.30
2022-09-21T12:05:48.942Z,67.00
2022-09-21T12:08:36.505Z,67.00
2022-09-21T12:11:13.376Z,66.80
2022-09-21T12:13:44.035Z,67.10
2022-09-21T12:16:16.895Z,66.50
2022-09-21T12:18:49.917Z,66.40
2022-09-21T12:21:22.766Z,66.40
2022-09-21T12:23:55.215Z,66.40
2022-09-21T12:26:31.994Z,66.40
2022-09-21T12:29:03.302Z,66.20
2022-09-21T12:31:31.595Z,66.20
2022-09-21T12:34:02.648Z,66.20
2022-09-21T12:36:34.299Z,66.30
2022-09-21T12:39:05.844Z,66.80
2022-09-21T12:41:41.514Z,66.60
2022-09-21T12:44:31.327Z,66.40
2022-09-21T12:47:09.482Z,66.30
2022-09-21T12:49:48.057Z,66.30
2022-09-21T12:52:21.246Z,66.40
2022-09-21T12:55:20.434Z,66.30
2022-09-21T12:58:14.738Z,66.30
2022-09-21T13:00:57.673Z,66.30
2022-09-21T13:03:30.960Z,66.30
2022-09-21T13:06:06.779Z,66.20
2022-09-21T13:08:36.761Z,66.30
2022-09-21T13:11:08.044Z,66.40
2022-09-21T13:13:52.999Z,66.50
2022-09-21T13:16:25.255Z,66.50
2022-09-21T13:18:59.742Z,66.50
2022-09-21T13:21:29.880Z,66.50
2022-09-21T13:24:07.860Z,66.60
2022-09-21T13:26:37.187Z,66.60
2022-09-21T13:29:24.103Z,66.90
2022-09-21T13:32:01.024Z,66.80
2022-09-21T13:34:34.523Z,66.80
2022-09-21T13:37:19.566Z,66.70
2022-09-21T13:39:46.161Z,66.70
2022-09-21T13:42:31.791Z,66.70
2022-09-21T13:44:58.436Z,66.70
2022-09-21T13:47:30.237Z,66.50
2022-09-21T13:50:00.519Z,66.70
2022-09-21T13:52:48.824Z,66.80
2022-09-21T13:55:28.337Z,66.60
2022-09-21T13:57:57.522Z,67.20
2022-09-21T14:00:39.512Z,66.70
2022-09-21T14:03:17.489Z,66.60
2022-09-21T14:05:45.997Z,66.60
2022-09-21T14:08:15.738Z,66.60
2022-09-21T14:10:48.957Z,66.60
2022-09-21T14:13:25.779Z,66.50
2022-09-21T14:15:52.549Z,66.70
2022-09-21T14:18:35.759Z,66.80
2022-09-21T14:21:09.887Z,66.70
2022-09-21T14:23:37.433Z,66.70
2022-09-21T14:26:20.182Z,66.50
2022-09-21T14:28:50.149Z,67.90
2022-09-21T14:31:31.127Z,67.70
2022-09-21T14:34:00.118Z,67.50
2022-09-21T14:36:34.597Z,67.40
2022-09-21T14:39:02.641Z,67.20
2022-09-21T14:41:34.518Z,67.20
2022-09-21T14:44:01.319Z,67.10
2022-09-21T14:46:45.216Z,67.10
2022-09-21T14:49:30.122Z,67.00
2022-09-21T14:52:21.115Z,67.10
2022-09-21T14:54:56.429Z,67.10
2022-09-21T14:57:35.379Z,67.10
2022-09-21T15:00:23.418Z,67.00
2022-09-21T15:03:00.231Z,66.90
2022-09-21T15:05:31.269Z,66.80
2022-09-21T15:08:32.041Z,66.90
2022-09-21T15:11:18.846Z,66.90
2022-09-21T15:13:52.490Z,66.80
2022-09-21T15:16:28.142Z,66.90
2022-09-21T15:19:03.341Z,66.80
2022-09-21T15:21:32.028Z,66.80
2022-09-21T15:24:00.247Z,66.80
2022-09-21T15:26:29.897Z,66.80
2022-09-21T15:29:09.210Z,66.80
2022-09-21T15:31:37.959Z,66.80
2022-09-21T15:34:05.524Z,66.80
2022-09-21T15:36:34.224Z,66.80
2022-09-21T15:39:00.905Z,67.50
2022-09-21T15:41:41.734Z,66.60
2022-09-21T15:44:16.361Z,66.80
2022-09-21T15:46:44.069Z,66.70
2022-09-21T15:49:12.291Z,66.80
2022-09-21T15:51:41.015Z,66.70
2022-09-21T15:54:13.298Z,66.60
2022-09-21T15:56:42.843Z,66.50
2022-09-21T15:59:12.478Z,66.60
2022-09-21T16:01:40.815Z,66.70
2022-09-21T16:04:07.943Z,66.60
2022-09-21T16:06:45.235Z,66.60
2022-09-21T16:09:41.282Z,66.60
2022-09-21T16:12:26.170Z,66.60
2022-09-21T16:14:57.965Z,66.60
2022-09-21T16:17:28.402Z,66.60
2022-09-21T16:19:55.021Z,66.70
2022-09-21T16:22:24.586Z,66.70
2022-09-21T16:24:52.518Z,67.30
2022-09-21T16:27:19.993Z,66.60
2022-09-21T16:29:48.508Z,66.60
2022-09-21T16:32:18.110Z,66.60
2022-09-21T16:34:45.865Z,66.70
2022-09-21T16:37:24.767Z,66.80
2022-09-21T16:39:52.949Z,66.80
2022-09-21T16:42:20.167Z,66.70
2022-09-21T16:44:47.266Z,66.80
2022-09-21T16:47:15.399Z,66.80
2022-09-21T16:49:42.426Z,66.80
2022-09-21T16:52:09.371Z,67.00
2022-09-21T16:54:37.457Z,67.00
2022-09-21T16:57:06.241Z,67.00
2022-09-21T16:59:34.709Z,67.00
2022-09-21T17:02:04.193Z,67.00
2022-09-21T17:04:31.858Z,67.00
2022-09-21T17:06:58.493Z,67.10
2022-09-21T17:09:29.927Z,67.20
2022-09-21T17:12:00.213Z,67.20
2022-09-21T17:14:35.185Z,67.20
2022-09-21T17:17:04.266Z,67.20
2022-09-21T17:19:31.967Z,67.20
2022-09-21T17:21:59.692Z,67.30
2022-09-21T17:24:49.250Z,67.30
2022-09-21T17:27:17.754Z,67.30
2022-09-21T17:29:48.350Z,67.20
2022-09-21T17:32:15.770Z,67.20
2022-09-21T17:34:43.612Z,67.20
2022-09-21T17:37:10.764Z,67.30
2022-09-21T17:39:37.555Z,67.30
2022-09-21T17:42:16.607Z,67.30
2022-09-21T17:45:06.853Z,67.30
2022-09-21T17:47:34.099Z,67.30
2022-09-21T17:50:12.925Z,67.30
2022-09-21T17:52:59.190Z,67.30
2022-09-21T17:55:25.979Z,67.20
2022-09-21T17:58:02.412Z,67.30
2022-09-21T18:00:34.514Z,67.30
2022-09-21T18:03:01.407Z,67.20
2022-09-21T18:05:29.168Z,67.20
2022-09-21T18:07:56.058Z,67.20
2022-09-21T18:10:25.065Z,67.30
2022-09-21T18:13:16.606Z,67.40
2022-09-21T18:16:02.257Z,67.30
2022-09-21T18:18:43.048Z,67.40
2022-09-21T18:21:12.797Z,67.40
2022-09-21T18:23:39.432Z,67.50
2022-09-21T18:26:15.496Z,67.40
2022-09-21T18:28:46.314Z,67.30
2022-09-21T18:31:30.291Z,67.40
2022-09-21T18:34:07.214Z,68.00
2022-09-21T18:36:39.381Z,67.30
2022-09-21T18:39:13.825Z,67.20
2022-09-21T18:41:48.005Z,67.30
2022-09-21T18:44:32.530Z,67.30
2022-09-21T18:47:05.783Z,67.40
2022-09-21T18:49:35.359Z,67.20
2022-09-21T18:52:09.037Z,67.40
2022-09-21T18:54:35.958Z,67.40
2022-09-21T18:57:23.426Z,67.20
2022-09-21T18:59:50.323Z,67.20
2022-09-21T19:02:19.123Z,67.20
2022-09-21T19:04:46.466Z,67.20
2022-09-21T19:07:21.926Z,67.30
2022-09-21T19:09:54.441Z,67.20
2022-09-21T19:12:21.404Z,67.30
2022-09-21T19:15:03.325Z,67.10
2022-09-21T19:17:48.988Z,67.00
2022-09-21T19:20:26.667Z,66.90
2022-09-21T19:23:00.701Z,67.20
2022-09-21T19:25:28.213Z,67.10
2022-09-21T19:27:58.973Z,67.20
2022-09-21T19:30:25.938Z,67.00
2022-09-21T19:32:53.903Z,67.10
2022-09-21T19:35:24.770Z,67.10
2022-09-21T19:37:52.432Z,66.80
2022-09-21T19:40:21.266Z,66.70
2022-09-21T19:42:59.413Z,66.70
2022-09-21T19:45:26.818Z,67.00
2022-09-21T19:47:54.739Z,67.10
2022-09-21T19:50:40.742Z,67.10
2022-09-21T19:53:28.342Z,67.00
2022-09-21T19:56:15.376Z,67.00
2022-09-21T19:59:00.806Z,67.40
2022-09-21T20:01:28.852Z,67.00
2022-09-21T20:03:55.967Z,67.50
2022-09-21T20:06:31.491Z,67.60
2022-09-21T20:09:11.297Z,67.90
2022-09-21T20:11:41.109Z,67.50
2022-09-21T20:14:10.786Z,67.10
2022-09-21T20:16:45.838Z,67.90
2022-09-21T20:19:19.009Z,67.30
2022-09-21T20:21:49.066Z,67.30
2022-09-21T20:24:25.106Z,67.10
2022-09-21T20:26:52.003Z,67.10
2022-09-21T20:29:19.632Z,67.70
2022-09-21T20:31:47.907Z,67.80
2022-09-21T20:34:14.590Z,67.60
2022-09-21T20:36:41.267Z,68.10
2022-09-21T20:39:07.965Z,67.70
2022-09-21T20:41:34.562Z,67.80
2022-09-21T20:44:01.981Z,67.80
2022-09-21T20:46:28.701Z,67.40
2022-09-21T20:49:05.339Z,67.40
2022-09-21T20:51:33.955Z,67.20
2022-09-21T20:54:02.217Z,67.30
2022-09-21T20:56:29.794Z,67.30
2022-09-21T20:58:56.833Z,67.60
2022-09-21T21:01:23.838Z,67.20
2022-09-21T21:03:51.016Z,66.60
2022-09-21T21:06:18.889Z,67.60
2022-09-21T21:08:46.140Z,67.40
2022-09-21T21:11:14.345Z,66.90
2022-09-21T21:13:41.340Z,67.00
2022-09-21T21:16:12.161Z,67.50
2022-09-21T21:18:42.291Z,69.10
2022-09-21T21:21:09.041Z,67.70
2022-09-21T21:23:54.387Z,67.50
2022-09-21T21:26:26.259Z,67.20
2022-09-21T21:29:00.192Z,67.00
2022-09-21T21:31:27.888Z,66.50
2022-09-21T21:33:54.581Z,67.00
2022-09-21T21:36:21.311Z,66.80
2022-09-21T21:38:48.004Z,66.90
2022-09-21T21:41:14.940Z,66.90
2022-09-21T21:43:42.122Z,66.90
2022-09-21T21:46:09.948Z,68.00
2022-09-21T21:48:37.506Z,66.80
2022-09-21T21:51:05.066Z,66.80
2022-09-21T21:53:36.394Z,66.80
2022-09-21T21:56:03.092Z,66.70
2022-09-21T21:58:29.883Z,66.60
2022-09-21T22:01:05.150Z,67.50
2022-09-21T22:03:34.748Z,66.90
2022-09-21T22:06:01.974Z,68.60
2022-09-21T22:08:29.513Z,66.80
2022-09-21T22:10:56.203Z,66.70
2022-09-21T22:13:23.632Z,68.40
2022-09-21T22:15:50.586Z,67.40
2022-09-21T22:18:18.065Z,66.80
2022-09-21T22:20:45.989Z,68.30
2022-09-21T22:23:13.608Z,66.70
2022-09-21T22:25:40.571Z,68.90
2022-09-21T22:28:09.625Z,68.40
2022-09-21T22:30:36.306Z,68.20
2022-09-21T22:33:03.149Z,67.80
2022-09-21T22:35:29.819Z,66.80
2022-09-21T22:37:56.526Z,68.10
2022-09-21T22:40:23.436Z,67.40
2022-09-21T22:42:50.207Z,66.70
2022-09-21T22:45:17.159Z,66.70
2022-09-21T22:47:43.880Z,66.80
2022-09-21T22:50:10.657Z,66.70
2022-09-21T22:52:37.411Z,68.70
2022-09-21T22:55:04.230Z,66.90
2022-09-21T22:57:30.928Z,67.40
2022-09-21T22:59:57.612Z,67.80
2022-09-21T23:02:24.557Z,66.60
2022-09-21T23:04:51.214Z,66.80
2022-09-21T23:07:17.843Z,66.90
2022-09-21T23:09:44.559Z,66.80
2022-09-21T23:12:11.219Z,67.80
2022-09-21T23:14:37.891Z,67.70
2022-09-21T23:17:04.571Z,66.70
2022-09-21T23:19:33.160Z,66.90
2022-09-21T23:21:59.877Z,67.80
2022-09-21T23:24:26.548Z,66.90
2022-09-21T23:26:53.360Z,68.10
2022-09-21T23:29:20.045Z,66.70
2022-09-21T23:31:49.240Z,67.40
2022-09-21T23:34:16.121Z,67.00
2022-09-21T23:36:43.472Z,68.90
2022-09-21T23:39:11.599Z,67.40
2022-09-21T23:41:38.364Z,66.80
2022-09-21T23:44:08.194Z,67.10
2022-09-21T23:46:36.039Z,66.30
2022-09-21T23:49:03.041Z,66.50
2022-09-21T23:51:32.898Z,67.30
2022-09-21T23:53:59.815Z,67.70
2022-09-21T23:56:26.999Z,66.20
2022-09-21T23:58:53.801Z,66.40
